sensor_id;sensor_type;location;lat;lon;timestamp;temperature;humidity
2190;DHT22;1101;51.056;7.262;2023-04-12T00:01:25;8.20;86.80
2190;DHT22;1101;51.056;7.262;2023-04-12T00:03:53;8.20;86.90
2190;DHT22;1101;51.056;7.262;2023-04-12T00:06:21;8.20;86.90
2190;DHT22;1101;51.056;7.262;2023-04-12T00:08:58;8.20;87.00
2190;DHT22;1101;51.056;7.262;2023-04-12T00:11:26;8.20;87.10
2190;DHT22;1101;51.056;7.262;2023-04-12T00:13:54;8.20;87.10
2190;DHT22;1101;51.056;7.262;2023-04-12T00:16:24;8.20;87.30
2190;DHT22;1101;51.056;7.262;2023-04-12T00:18:52;8.20;87.40
2190;DHT22;1101;51.056;7.262;2023-04-12T00:21:21;8.20;87.60
2190;DHT22;1101;51.056;7.262;2023-04-12T00:23:49;8.10;87.70
2190;DHT22;1101;51.056;7.262;2023-04-12T00:26:17;8.20;87.80
2190;DHT22;1101;51.056;7.262;2023-04-12T00:28:47;8.10;87.80
2190;DHT22;1101;51.056;7.262;2023-04-12T00:31:15;8.10;87.90
2190;DHT22;1101;51.056;7.262;2023-04-12T00:33:44;8.10;88.10
2190;DHT22;1101;51.056;7.262;2023-04-12T00:36:12;8.10;88.20
2190;DHT22;1101;51.056;7.262;2023-04-12T00:38:40;8.10;88.30
2190;DHT22;1101;51.056;7.262;2023-04-12T00:41:08;8.10;88.50
2190;DHT22;1101;51.056;7.262;2023-04-12T00:43:36;8.10;88.50
2190;DHT22;1101;51.056;7.262;2023-04-12T00:46:04;8.00;88.60
2190;DHT22;1101;51.056;7.262;2023-04-12T00:48:33;8.00;88.80
2190;DHT22;1101;51.056;7.262;2023-04-12T00:51:02;8.00;88.90
2190;DHT22;1101;51.056;7.262;2023-04-12T00:53:30;8.00;89.00
2190;DHT22;1101;51.056;7.262;2023-04-12T00:55:59;8.00;89.20
2190;DHT22;1101;51.056;7.262;2023-04-12T00:58:29;8.00;89.20
2190;DHT22;1101;51.056;7.262;2023-04-12T01:00:57;8.00;89.40
2190;DHT22;1101;51.056;7.262;2023-04-12T01:03:26;7.90;89.40
2190;DHT22;1101;51.056;7.262;2023-04-12T01:06:06;7.90;89.50
2190;DHT22;1101;51.056;7.262;2023-04-12T01:08:41;7.90;89.60
2190;DHT22;1101;51.056;7.262;2023-04-12T01:11:25;7.90;89.70
2190;DHT22;1101;51.056;7.262;2023-04-12T01:13:59;7.90;89.90
2190;DHT22;1101;51.056;7.262;2023-04-12T01:16:36;7.90;90.00
2190;DHT22;1101;51.056;7.262;2023-04-12T01:19:28;7.90;90.00
2190;DHT22;1101;51.056;7.262;2023-04-12T01:22:09;7.90;90.00
2190;DHT22;1101;51.056;7.262;2023-04-12T01:24:49;7.90;90.00
2190;DHT22;1101;51.056;7.262;2023-04-12T01:27:29;7.90;90.10
2190;DHT22;1101;51.056;7.262;2023-04-12T01:30:02;7.90;90.10
2190;DHT22;1101;51.056;7.262;2023-04-12T01:32:33;7.90;90.20
2190;DHT22;1101;51.056;7.262;2023-04-12T01:35:03;7.80;90.20
2190;DHT22;1101;51.056;7.262;2023-04-12T01:37:33;7.80;90.20
2190;DHT22;1101;51.056;7.262;2023-04-12T01:40:02;7.80;90.30
2190;DHT22;1101;51.056;7.262;2023-04-12T01:42:32;7.80;90.30
2190;DHT22;1101;51.056;7.262;2023-04-12T01:45:01;7.80;90.40
2190;DHT22;1101;51.056;7.262;2023-04-12T01:47:29;7.80;90.40
2190;DHT22;1101;51.056;7.262;2023-04-12T01:50:06;7.80;90.50
2190;DHT22;1101;51.056;7.262;2023-04-12T01:52:39;7.80;90.50
2190;DHT22;1101;51.056;7.262;2023-04-12T01:55:09;7.80;90.60
2190;DHT22;1101;51.056;7.262;2023-04-12T01:57:42;7.70;90.60
2190;DHT22;1101;51.056;7.262;2023-04-12T02:00:11;7.70;90.60
2190;DHT22;1101;51.056;7.262;2023-04-12T02:02:39;7.70;90.70
2190;DHT22;1101;51.056;7.262;2023-04-12T02:05:08;7.70;90.70
2190;DHT22;1101;51.056;7.262;2023-04-12T02:07:38;7.60;90.70
2190;DHT22;1101;51.056;7.262;2023-04-12T02:10:06;7.70;90.80
2190;DHT22;1101;51.056;7.262;2023-04-12T02:12:34;7.70;90.90
2190;DHT22;1101;51.056;7.262;2023-04-12T02:15:04;7.60;90.80
2190;DHT22;1101;51.056;7.262;2023-04-12T02:17:33;7.60;90.80
2190;DHT22;1101;51.056;7.262;2023-04-12T02:20:02;7.60;90.80
2190;DHT22;1101;51.056;7.262;2023-04-12T02:22:32;7.60;90.90
2190;DHT22;1101;51.056;7.262;2023-04-12T02:25:00;7.60;91.00
2190;DHT22;1101;51.056;7.262;2023-04-12T02:27:28;7.60;91.00
2190;DHT22;1101;51.056;7.262;2023-04-12T02:29:56;7.60;91.00
2190;DHT22;1101;51.056;7.262;2023-04-12T02:32:25;7.50;91.00
2190;DHT22;1101;51.056;7.262;2023-04-12T02:34:53;7.60;91.10
2190;DHT22;1101;51.056;7.262;2023-04-12T02:37:24;7.60;91.10
2190;DHT22;1101;51.056;7.262;2023-04-12T02:39:52;7.60;91.10
2190;DHT22;1101;51.056;7.262;2023-04-12T02:42:22;7.50;91.10
2190;DHT22;1101;51.056;7.262;2023-04-12T02:44:51;7.60;91.20
2190;DHT22;1101;51.056;7.262;2023-04-12T02:47:18;7.50;91.20
2190;DHT22;1101;51.056;7.262;2023-04-12T02:49:48;7.50;91.30
2190;DHT22;1101;51.056;7.262;2023-04-12T02:52:16;7.50;91.40
2190;DHT22;1101;51.056;7.262;2023-04-12T02:54:44;7.50;91.30
2190;DHT22;1101;51.056;7.262;2023-04-12T02:57:12;7.50;91.40
2190;DHT22;1101;51.056;7.262;2023-04-12T02:59:41;7.50;91.40
2190;DHT22;1101;51.056;7.262;2023-04-12T03:02:09;7.50;91.50
2190;DHT22;1101;51.056;7.262;2023-04-12T03:04:38;7.50;91.50
2190;DHT22;1101;51.056;7.262;2023-04-12T03:07:07;7.40;91.50
2190;DHT22;1101;51.056;7.262;2023-04-12T03:09:35;7.50;91.60
2190;DHT22;1101;51.056;7.262;2023-04-12T03:12:04;7.50;91.60
2190;DHT22;1101;51.056;7.262;2023-04-12T03:14:32;7.40;91.60
2190;DHT22;1101;51.056;7.262;2023-04-12T03:17:00;7.40;91.60
2190;DHT22;1101;51.056;7.262;2023-04-12T03:19:28;7.40;91.60
2190;DHT22;1101;51.056;7.262;2023-04-12T03:21:58;7.40;91.80
2190;DHT22;1101;51.056;7.262;2023-04-12T03:24:28;7.40;91.80
2190;DHT22;1101;51.056;7.262;2023-04-12T03:27:00;7.40;91.70
2190;DHT22;1101;51.056;7.262;2023-04-12T03:29:29;7.40;92.00
2190;DHT22;1101;51.056;7.262;2023-04-12T03:31:57;7.30;91.80
2190;DHT22;1101;51.056;7.262;2023-04-12T03:34:25;7.30;91.80
2190;DHT22;1101;51.056;7.262;2023-04-12T03:36:54;7.30;91.80
2190;DHT22;1101;51.056;7.262;2023-04-12T03:39:22;7.30;91.90
2190;DHT22;1101;51.056;7.262;2023-04-12T03:41:51;7.30;92.10
2190;DHT22;1101;51.056;7.262;2023-04-12T03:44:19;7.30;92.10
2190;DHT22;1101;51.056;7.262;2023-04-12T03:46:47;7.30;92.00
2190;DHT22;1101;51.056;7.262;2023-04-12T03:49:15;7.30;92.00
2190;DHT22;1101;51.056;7.262;2023-04-12T03:51:43;7.30;92.20
2190;DHT22;1101;51.056;7.262;2023-04-12T03:54:12;7.30;92.20
2190;DHT22;1101;51.056;7.262;2023-04-12T03:56:39;7.30;92.20
2190;DHT22;1101;51.056;7.262;2023-04-12T03:59:11;7.30;92.20
2190;DHT22;1101;51.056;7.262;2023-04-12T04:01:40;7.30;92.30
2190;DHT22;1101;51.056;7.262;2023-04-12T04:04:08;7.30;92.20
2190;DHT22;1101;51.056;7.262;2023-04-12T04:06:37;7.30;92.30
2190;DHT22;1101;51.056;7.262;2023-04-12T04:09:06;7.30;92.30
2190;DHT22;1101;51.056;7.262;2023-04-12T04:11:34;7.30;92.40
2190;DHT22;1101;51.056;7.262;2023-04-12T04:14:03;7.20;92.40
2190;DHT22;1101;51.056;7.262;2023-04-12T04:16:32;7.20;92.50
2190;DHT22;1101;51.056;7.262;2023-04-12T04:19:00;7.20;92.40
2190;DHT22;1101;51.056;7.262;2023-04-12T04:21:28;7.20;92.40
2190;DHT22;1101;51.056;7.262;2023-04-12T04:23:58;7.20;92.50
2190;DHT22;1101;51.056;7.262;2023-04-12T04:26:27;7.20;92.50
2190;DHT22;1101;51.056;7.262;2023-04-12T04:28:59;7.20;92.60
2190;DHT22;1101;51.056;7.262;2023-04-12T04:31:31;7.20;92.60
2190;DHT22;1101;51.056;7.262;2023-04-12T04:34:02;7.20;92.60
2190;DHT22;1101;51.056;7.262;2023-04-12T04:36:32;7.20;92.60
2190;DHT22;1101;51.056;7.262;2023-04-12T04:39:00;7.20;92.60
2190;DHT22;1101;51.056;7.262;2023-04-12T04:41:29;7.20;92.70
2190;DHT22;1101;51.056;7.262;2023-04-12T04:44:00;7.20;92.90
2190;DHT22;1101;51.056;7.262;2023-04-12T04:46:31;7.20;92.80
2190;DHT22;1101;51.056;7.262;2023-04-12T04:49:00;7.10;92.80
2190;DHT22;1101;51.056;7.262;2023-04-12T04:51:28;7.20;92.80
2190;DHT22;1101;51.056;7.262;2023-04-12T04:53:57;7.20;93.10
2190;DHT22;1101;51.056;7.262;2023-04-12T04:56:25;7.10;92.90
2190;DHT22;1101;51.056;7.262;2023-04-12T04:58:52;7.10;92.90
2190;DHT22;1101;51.056;7.262;2023-04-12T05:01:23;7.10;93.00
2190;DHT22;1101;51.056;7.262;2023-04-12T05:03:55;7.10;93.00
2190;DHT22;1101;51.056;7.262;2023-04-12T05:06:23;7.10;92.90
2190;DHT22;1101;51.056;7.262;2023-04-12T05:08:52;7.20;93.10
2190;DHT22;1101;51.056;7.262;2023-04-12T05:11:21;7.20;93.10
2190;DHT22;1101;51.056;7.262;2023-04-12T05:13:48;7.10;93.00
2190;DHT22;1101;51.056;7.262;2023-04-12T05:16:16;7.20;93.10
2190;DHT22;1101;51.056;7.262;2023-04-12T05:18:44;7.20;93.20
2190;DHT22;1101;51.056;7.262;2023-04-12T05:21:14;7.20;93.10
2190;DHT22;1101;51.056;7.262;2023-04-12T05:23:43;7.10;93.20
2190;DHT22;1101;51.056;7.262;2023-04-12T05:26:12;7.10;93.20
2190;DHT22;1101;51.056;7.262;2023-04-12T05:28:40;7.10;93.20
2190;DHT22;1101;51.056;7.262;2023-04-12T05:31:08;7.10;93.20
2190;DHT22;1101;51.056;7.262;2023-04-12T05:33:35;7.10;93.30
2190;DHT22;1101;51.056;7.262;2023-04-12T05:36:04;7.10;93.30
2190;DHT22;1101;51.056;7.262;2023-04-12T05:38:34;7.10;93.30
2190;DHT22;1101;51.056;7.262;2023-04-12T05:41:02;7.10;93.40
2190;DHT22;1101;51.056;7.262;2023-04-12T05:43:31;7.10;93.40
2190;DHT22;1101;51.056;7.262;2023-04-12T05:45:59;7.20;93.50
2190;DHT22;1101;51.056;7.262;2023-04-12T05:48:27;7.20;93.50
2190;DHT22;1101;51.056;7.262;2023-04-12T05:50:55;7.20;93.60
2190;DHT22;1101;51.056;7.262;2023-04-12T05:53:23;7.10;93.50
2190;DHT22;1101;51.056;7.262;2023-04-12T05:55:52;7.10;93.60
2190;DHT22;1101;51.056;7.262;2023-04-12T05:58:20;7.10;93.50
2190;DHT22;1101;51.056;7.262;2023-04-12T06:00:48;7.10;93.60
2190;DHT22;1101;51.056;7.262;2023-04-12T06:03:16;7.10;93.60
2190;DHT22;1101;51.056;7.262;2023-04-12T06:05:44;7.10;93.70
2190;DHT22;1101;51.056;7.262;2023-04-12T06:08:12;7.20;93.80
2190;DHT22;1101;51.056;7.262;2023-04-12T06:10:40;7.20;93.70
2190;DHT22;1101;51.056;7.262;2023-04-12T06:13:09;7.10;93.70
2190;DHT22;1101;51.056;7.262;2023-04-12T06:15:37;7.10;93.80
2190;DHT22;1101;51.056;7.262;2023-04-12T06:18:06;7.10;93.90
2190;DHT22;1101;51.056;7.262;2023-04-12T06:20:34;7.10;93.90
2190;DHT22;1101;51.056;7.262;2023-04-12T06:23:05;7.10;93.90
2190;DHT22;1101;51.056;7.262;2023-04-12T06:25:33;7.10;93.90
2190;DHT22;1101;51.056;7.262;2023-04-12T06:28:01;7.10;94.00
2190;DHT22;1101;51.056;7.262;2023-04-12T06:30:30;7.10;94.00
2190;DHT22;1101;51.056;7.262;2023-04-12T06:32:58;7.10;94.10
2190;DHT22;1101;51.056;7.262;2023-04-12T06:35:26;7.10;94.10
2190;DHT22;1101;51.056;7.262;2023-04-12T06:37:54;7.20;94.20
2190;DHT22;1101;51.056;7.262;2023-04-12T06:40:22;7.10;94.30
2190;DHT22;1101;51.056;7.262;2023-04-12T06:42:49;7.10;94.20
2190;DHT22;1101;51.056;7.262;2023-04-12T06:45:17;7.20;94.20
2190;DHT22;1101;51.056;7.262;2023-04-12T06:47:47;7.20;94.30
2190;DHT22;1101;51.056;7.262;2023-04-12T06:50:15;7.20;94.20
2190;DHT22;1101;51.056;7.262;2023-04-12T06:52:44;7.20;94.30
2190;DHT22;1101;51.056;7.262;2023-04-12T06:55:14;7.20;94.40
2190;DHT22;1101;51.056;7.262;2023-04-12T06:57:42;7.20;94.30
2190;DHT22;1101;51.056;7.262;2023-04-12T07:00:11;7.20;94.30
2190;DHT22;1101;51.056;7.262;2023-04-12T07:02:39;7.30;94.40
2190;DHT22;1101;51.056;7.262;2023-04-12T07:05:09;7.30;94.50
2190;DHT22;1101;51.056;7.262;2023-04-12T07:07:36;7.30;94.50
2190;DHT22;1101;51.056;7.262;2023-04-12T07:10:06;7.30;94.50
2190;DHT22;1101;51.056;7.262;2023-04-12T07:12:34;7.30;94.50
2190;DHT22;1101;51.056;7.262;2023-04-12T07:15:02;7.30;94.50
2190;DHT22;1101;51.056;7.262;2023-04-12T07:17:30;7.40;94.80
2190;DHT22;1101;51.056;7.262;2023-04-12T07:19:58;7.40;94.60
2190;DHT22;1101;51.056;7.262;2023-04-12T07:22:27;7.40;94.70
2190;DHT22;1101;51.056;7.262;2023-04-12T07:24:55;7.40;94.60
2190;DHT22;1101;51.056;7.262;2023-04-12T07:27:23;7.40;94.70
2190;DHT22;1101;51.056;7.262;2023-04-12T07:29:51;7.50;94.80
2190;DHT22;1101;51.056;7.262;2023-04-12T07:32:20;7.50;94.70
2190;DHT22;1101;51.056;7.262;2023-04-12T07:34:48;7.50;94.80
2190;DHT22;1101;51.056;7.262;2023-04-12T07:37:16;7.50;94.80
2190;DHT22;1101;51.056;7.262;2023-04-12T07:39:45;7.50;94.80
2190;DHT22;1101;51.056;7.262;2023-04-12T07:42:13;7.50;95.00
2190;DHT22;1101;51.056;7.262;2023-04-12T07:44:41;7.60;94.90
2190;DHT22;1101;51.056;7.262;2023-04-12T07:47:09;7.60;95.00
2190;DHT22;1101;51.056;7.262;2023-04-12T07:49:37;7.60;95.00
2190;DHT22;1101;51.056;7.262;2023-04-12T07:52:05;7.60;95.00
2190;DHT22;1101;51.056;7.262;2023-04-12T07:54:33;7.60;95.00
2190;DHT22;1101;51.056;7.262;2023-04-12T07:57:03;7.60;95.00
2190;DHT22;1101;51.056;7.262;2023-04-12T07:59:31;7.60;95.10
2190;DHT22;1101;51.056;7.262;2023-04-12T08:01:59;7.70;95.10
2190;DHT22;1101;51.056;7.262;2023-04-12T08:04:27;7.70;95.10
2190;DHT22;1101;51.056;7.262;2023-04-12T08:06:55;7.80;95.10
2190;DHT22;1101;51.056;7.262;2023-04-12T08:09:23;7.80;95.20
2190;DHT22;1101;51.056;7.262;2023-04-12T08:11:51;7.80;95.10
2190;DHT22;1101;51.056;7.262;2023-04-12T08:14:20;7.90;95.20
2190;DHT22;1101;51.056;7.262;2023-04-12T08:16:48;7.90;95.20
2190;DHT22;1101;51.056;7.262;2023-04-12T08:19:18;7.90;95.20
2190;DHT22;1101;51.056;7.262;2023-04-12T08:21:46;7.90;95.40
2190;DHT22;1101;51.056;7.262;2023-04-12T08:24:14;7.90;95.30
2190;DHT22;1101;51.056;7.262;2023-04-12T08:26:42;8.00;95.40
2190;DHT22;1101;51.056;7.262;2023-04-12T08:29:10;8.00;95.40
2190;DHT22;1101;51.056;7.262;2023-04-12T08:31:39;8.00;95.40
2190;DHT22;1101;51.056;7.262;2023-04-12T08:34:07;8.00;95.30
2190;DHT22;1101;51.056;7.262;2023-04-12T08:36:35;8.10;95.40
2190;DHT22;1101;51.056;7.262;2023-04-12T08:39:03;8.10;95.50
2190;DHT22;1101;51.056;7.262;2023-04-12T08:41:32;8.10;95.50
2190;DHT22;1101;51.056;7.262;2023-04-12T08:44:03;8.10;95.50
2190;DHT22;1101;51.056;7.262;2023-04-12T08:46:31;8.20;95.60
2190;DHT22;1101;51.056;7.262;2023-04-12T08:49:03;8.20;95.50
2190;DHT22;1101;51.056;7.262;2023-04-12T08:51:31;8.20;95.50
2190;DHT22;1101;51.056;7.262;2023-04-12T08:54:00;8.20;95.40
2190;DHT22;1101;51.056;7.262;2023-04-12T08:56:28;8.30;95.40
2190;DHT22;1101;51.056;7.262;2023-04-12T08:58:58;8.40;95.40
2190;DHT22;1101;51.056;7.262;2023-04-12T09:01:26;8.40;95.60
2190;DHT22;1101;51.056;7.262;2023-04-12T09:03:54;8.50;95.40
2190;DHT22;1101;51.056;7.262;2023-04-12T09:06:24;8.50;95.40
2190;DHT22;1101;51.056;7.262;2023-04-12T09:08:54;8.60;95.60
2190;DHT22;1101;51.056;7.262;2023-04-12T09:11:23;8.60;95.60
2190;DHT22;1101;51.056;7.262;2023-04-12T09:13:52;8.60;95.60
2190;DHT22;1101;51.056;7.262;2023-04-12T09:16:34;8.60;95.60
2190;DHT22;1101;51.056;7.262;2023-04-12T09:19:03;8.60;95.60
2190;DHT22;1101;51.056;7.262;2023-04-12T09:21:32;8.70;95.60
2190;DHT22;1101;51.056;7.262;2023-04-12T09:24:02;8.80;95.60
2190;DHT22;1101;51.056;7.262;2023-04-12T09:26:31;8.80;95.70
2190;DHT22;1101;51.056;7.262;2023-04-12T09:28:59;8.80;95.80
2190;DHT22;1101;51.056;7.262;2023-04-12T09:31:27;8.80;95.70
2190;DHT22;1101;51.056;7.262;2023-04-12T09:34:05;8.90;95.80
2190;DHT22;1101;51.056;7.262;2023-04-12T09:36:39;8.90;96.00
2190;DHT22;1101;51.056;7.262;2023-04-12T09:39:07;8.90;96.00
2190;DHT22;1101;51.056;7.262;2023-04-12T09:41:35;8.90;96.10
2190;DHT22;1101;51.056;7.262;2023-04-12T09:44:02;8.90;96.20
2190;DHT22;1101;51.056;7.262;2023-04-12T09:46:30;8.90;96.10
2190;DHT22;1101;51.056;7.262;2023-04-12T09:48:59;9.00;96.20
2190;DHT22;1101;51.056;7.262;2023-04-12T09:51:30;9.00;96.30
2190;DHT22;1101;51.056;7.262;2023-04-12T09:54:00;9.00;96.30
2190;DHT22;1101;51.056;7.262;2023-04-12T09:56:30;9.00;96.30
2190;DHT22;1101;51.056;7.262;2023-04-12T09:59:00;9.00;96.20
2190;DHT22;1101;51.056;7.262;2023-04-12T10:01:33;9.00;96.20
2190;DHT22;1101;51.056;7.262;2023-04-12T10:04:02;9.10;96.30
2190;DHT22;1101;51.056;7.262;2023-04-12T10:06:32;9.10;96.30
2190;DHT22;1101;51.056;7.262;2023-04-12T10:09:04;9.10;96.20
2190;DHT22;1101;51.056;7.262;2023-04-12T10:11:32;9.10;96.20
2190;DHT22;1101;51.056;7.262;2023-04-12T10:14:01;9.10;96.40
2190;DHT22;1101;51.056;7.262;2023-04-12T10:16:30;9.10;96.40
2190;DHT22;1101;51.056;7.262;2023-04-12T10:19:01;9.20;96.50
2190;DHT22;1101;51.056;7.262;2023-04-12T10:21:29;9.20;96.60
2190;DHT22;1101;51.056;7.262;2023-04-12T10:23:57;9.20;96.70
2190;DHT22;1101;51.056;7.262;2023-04-12T10:26:26;9.20;96.70
2190;DHT22;1101;51.056;7.262;2023-04-12T10:29:25;9.20;96.70
2190;DHT22;1101;51.056;7.262;2023-04-12T10:31:53;9.30;96.60
2190;DHT22;1101;51.056;7.262;2023-04-12T10:34:28;9.30;96.50
2190;DHT22;1101;51.056;7.262;2023-04-12T10:36:57;9.40;96.50
2190;DHT22;1101;51.056;7.262;2023-04-12T10:39:39;9.50;96.50
2190;DHT22;1101;51.056;7.262;2023-04-12T10:42:25;9.50;96.50
2190;DHT22;1101;51.056;7.262;2023-04-12T10:44:54;9.60;96.50
2190;DHT22;1101;51.056;7.262;2023-04-12T10:47:54;9.60;96.50
2190;DHT22;1101;51.056;7.262;2023-04-12T10:50:28;9.70;96.60
2190;DHT22;1101;51.056;7.262;2023-04-12T10:53:21;9.70;96.60
2190;DHT22;1101;51.056;7.262;2023-04-12T10:55:51;9.80;96.60
2190;DHT22;1101;51.056;7.262;2023-04-12T10:58:55;9.80;96.60
2190;DHT22;1101;51.056;7.262;2023-04-12T11:01:25;9.80;96.60
2190;DHT22;1101;51.056;7.262;2023-04-12T11:04:10;9.90;96.80
2190;DHT22;1101;51.056;7.262;2023-04-12T11:06:48;9.90;96.80
2190;DHT22;1101;51.056;7.262;2023-04-12T11:09:19;9.90;96.90
2190;DHT22;1101;51.056;7.262;2023-04-12T11:11:48;9.90;97.00
2190;DHT22;1101;51.056;7.262;2023-04-12T11:14:17;9.90;97.00
2190;DHT22;1101;51.056;7.262;2023-04-12T11:17:21;9.90;97.00
2190;DHT22;1101;51.056;7.262;2023-04-12T11:19:55;9.90;97.10
2190;DHT22;1101;51.056;7.262;2023-04-12T11:22:26;9.90;97.10
2190;DHT22;1101;51.056;7.262;2023-04-12T11:24:56;9.90;97.00
2190;DHT22;1101;51.056;7.262;2023-04-12T11:27:25;10.00;96.50
2190;DHT22;1101;51.056;7.262;2023-04-12T11:29:55;10.00;96.60
2190;DHT22;1101;51.056;7.262;2023-04-12T11:32:25;10.10;96.50
2190;DHT22;1101;51.056;7.262;2023-04-12T11:34:55;10.10;96.50
2190;DHT22;1101;51.056;7.262;2023-04-12T11:37:23;10.20;96.50
2190;DHT22;1101;51.056;7.262;2023-04-12T11:39:54;10.20;96.50
2190;DHT22;1101;51.056;7.262;2023-04-12T11:42:24;10.20;96.60
2190;DHT22;1101;51.056;7.262;2023-04-12T11:44:54;10.20;96.90
2190;DHT22;1101;51.056;7.262;2023-04-12T11:47:27;10.20;97.00
2190;DHT22;1101;51.056;7.262;2023-04-12T11:49:57;10.10;96.90
2190;DHT22;1101;51.056;7.262;2023-04-12T11:52:28;10.10;96.80
2190;DHT22;1101;51.056;7.262;2023-04-12T11:54:59;10.00;96.80
2190;DHT22;1101;51.056;7.262;2023-04-12T11:57:27;9.90;97.20
2190;DHT22;1101;51.056;7.262;2023-04-12T11:59:58;9.90;97.30
2190;DHT22;1101;51.056;7.262;2023-04-12T12:02:26;9.90;97.30
2190;DHT22;1101;51.056;7.262;2023-04-12T12:05:00;9.90;97.40
2190;DHT22;1101;51.056;7.262;2023-04-12T12:07:28;9.90;97.40
2190;DHT22;1101;51.056;7.262;2023-04-12T12:09:57;9.90;97.50
2190;DHT22;1101;51.056;7.262;2023-04-12T12:12:26;10.00;97.00
2190;DHT22;1101;51.056;7.262;2023-04-12T12:14:59;10.00;96.80
2190;DHT22;1101;51.056;7.262;2023-04-12T12:17:28;10.10;96.90
2190;DHT22;1101;51.056;7.262;2023-04-12T12:19:56;10.10;96.90
2190;DHT22;1101;51.056;7.262;2023-04-12T12:22:25;10.10;96.90
2190;DHT22;1101;51.056;7.262;2023-04-12T12:24:55;10.20;96.80
2190;DHT22;1101;51.056;7.262;2023-04-12T12:27:31;10.30;96.80
2190;DHT22;1101;51.056;7.262;2023-04-12T12:30:01;10.40;96.80
2190;DHT22;1101;51.056;7.262;2023-04-12T12:32:31;10.50;96.80
2190;DHT22;1101;51.056;7.262;2023-04-12T12:35:00;10.50;96.80
2190;DHT22;1101;51.056;7.262;2023-04-12T12:37:29;10.60;96.90
2190;DHT22;1101;51.056;7.262;2023-04-12T12:40:05;10.60;96.80
2190;DHT22;1101;51.056;7.262;2023-04-12T12:42:43;10.70;96.80
2190;DHT22;1101;51.056;7.262;2023-04-12T12:45:13;10.70;97.00
2190;DHT22;1101;51.056;7.262;2023-04-12T12:47:49;10.70;96.90
2190;DHT22;1101;51.056;7.262;2023-04-12T12:50:19;10.70;96.80
2190;DHT22;1101;51.056;7.262;2023-04-12T12:52:51;10.80;96.90
2190;DHT22;1101;51.056;7.262;2023-04-12T12:55:19;10.80;96.90
2190;DHT22;1101;51.056;7.262;2023-04-12T12:57:50;10.90;96.90
2190;DHT22;1101;51.056;7.262;2023-04-12T13:00:35;10.90;96.80
2190;DHT22;1101;51.056;7.262;2023-04-12T13:03:03;11.00;96.90
2190;DHT22;1101;51.056;7.262;2023-04-12T13:05:31;11.00;96.80
2190;DHT22;1101;51.056;7.262;2023-04-12T13:07:59;11.10;96.80
2190;DHT22;1101;51.056;7.262;2023-04-12T13:10:27;11.10;96.80
2190;DHT22;1101;51.056;7.262;2023-04-12T13:12:54;11.30;97.00
2190;DHT22;1101;51.056;7.262;2023-04-12T13:15:22;11.50;97.00
2190;DHT22;1101;51.056;7.262;2023-04-12T13:17:52;11.80;97.10
2190;DHT22;1101;51.056;7.262;2023-04-12T13:20:20;11.90;97.00
2190;DHT22;1101;51.056;7.262;2023-04-12T13:22:48;12.00;96.90
2190;DHT22;1101;51.056;7.262;2023-04-12T13:25:17;12.10;96.90
2190;DHT22;1101;51.056;7.262;2023-04-12T13:27:46;12.20;96.80
2190;DHT22;1101;51.056;7.262;2023-04-12T13:30:14;12.20;96.70
2190;DHT22;1101;51.056;7.262;2023-04-12T13:32:42;12.30;96.70
2190;DHT22;1101;51.056;7.262;2023-04-12T13:35:12;12.30;96.60
2190;DHT22;1101;51.056;7.262;2023-04-12T13:37:40;12.40;96.60
2190;DHT22;1101;51.056;7.262;2023-04-12T13:40:08;12.40;96.50
2190;DHT22;1101;51.056;7.262;2023-04-12T13:42:36;12.40;96.50
2190;DHT22;1101;51.056;7.262;2023-04-12T13:45:05;12.30;96.30
2190;DHT22;1101;51.056;7.262;2023-04-12T13:47:33;12.40;96.30
2190;DHT22;1101;51.056;7.262;2023-04-12T13:50:01;12.30;96.10
2190;DHT22;1101;51.056;7.262;2023-04-12T13:52:31;12.30;96.00
2190;DHT22;1101;51.056;7.262;2023-04-12T13:54:58;12.20;96.00
2190;DHT22;1101;51.056;7.262;2023-04-12T13:57:26;12.20;95.90
2190;DHT22;1101;51.056;7.262;2023-04-12T13:59:54;12.10;95.80
2190;DHT22;1101;51.056;7.262;2023-04-12T14:02:22;12.00;96.20
2190;DHT22;1101;51.056;7.262;2023-04-12T14:04:51;12.00;95.90
2190;DHT22;1101;51.056;7.262;2023-04-12T14:07:19;12.00;95.90
2190;DHT22;1101;51.056;7.262;2023-04-12T14:09:49;11.90;95.80
2190;DHT22;1101;51.056;7.262;2023-04-12T14:12:17;11.90;95.70
2190;DHT22;1101;51.056;7.262;2023-04-12T14:14:45;11.90;95.90
2190;DHT22;1101;51.056;7.262;2023-04-12T14:17:12;12.00;96.00
2190;DHT22;1101;51.056;7.262;2023-04-12T14:19:40;12.00;96.00
2190;DHT22;1101;51.056;7.262;2023-04-12T14:22:08;12.10;96.00
2190;DHT22;1101;51.056;7.262;2023-04-12T14:24:36;12.20;96.00
2190;DHT22;1101;51.056;7.262;2023-04-12T14:27:07;12.20;95.80
2190;DHT22;1101;51.056;7.262;2023-04-12T14:29:35;12.30;95.70
2190;DHT22;1101;51.056;7.262;2023-04-12T14:32:04;12.30;95.70
2190;DHT22;1101;51.056;7.262;2023-04-12T14:34:32;12.30;95.70
2190;DHT22;1101;51.056;7.262;2023-04-12T14:37:03;12.50;95.80
2190;DHT22;1101;51.056;7.262;2023-04-12T14:39:31;12.60;95.80
2190;DHT22;1101;51.056;7.262;2023-04-12T14:41:59;12.70;95.70
2190;DHT22;1101;51.056;7.262;2023-04-12T14:44:29;12.80;95.70
2190;DHT22;1101;51.056;7.262;2023-04-12T14:46:58;13.00;95.70
2190;DHT22;1101;51.056;7.262;2023-04-12T14:49:26;13.00;95.60
2190;DHT22;1101;51.056;7.262;2023-04-12T14:51:58;13.00;95.30
2190;DHT22;1101;51.056;7.262;2023-04-12T14:54:26;12.90;94.90
2190;DHT22;1101;51.056;7.262;2023-04-12T14:56:54;12.80;94.60
2190;DHT22;1101;51.056;7.262;2023-04-12T14:59:22;12.70;94.40
2190;DHT22;1101;51.056;7.262;2023-04-12T15:01:51;12.60;94.40
2190;DHT22;1101;51.056;7.262;2023-04-12T15:04:19;12.50;94.30
2190;DHT22;1101;51.056;7.262;2023-04-12T15:06:47;12.40;94.40
2190;DHT22;1101;51.056;7.262;2023-04-12T15:09:15;12.30;94.70
2190;DHT22;1101;51.056;7.262;2023-04-12T15:11:43;12.30;94.90
2190;DHT22;1101;51.056;7.262;2023-04-12T15:14:12;12.40;94.90
2190;DHT22;1101;51.056;7.262;2023-04-12T15:16:43;12.40;94.70
2190;DHT22;1101;51.056;7.262;2023-04-12T15:19:13;12.50;94.50
2190;DHT22;1101;51.056;7.262;2023-04-12T15:21:47;12.40;94.60
2190;DHT22;1101;51.056;7.262;2023-04-12T15:24:16;12.50;94.90
2190;DHT22;1101;51.056;7.262;2023-04-12T15:26:44;12.60;94.70
2190;DHT22;1101;51.056;7.262;2023-04-12T15:29:13;12.70;94.60
2190;DHT22;1101;51.056;7.262;2023-04-12T15:31:41;12.70;94.20
2190;DHT22;1101;51.056;7.262;2023-04-12T15:34:09;12.70;93.90
2190;DHT22;1101;51.056;7.262;2023-04-12T15:36:40;12.50;93.60
2190;DHT22;1101;51.056;7.262;2023-04-12T15:39:09;12.40;93.90
2190;DHT22;1101;51.056;7.262;2023-04-12T15:41:38;12.40;93.90
2190;DHT22;1101;51.056;7.262;2023-04-12T15:44:09;12.30;94.00
2190;DHT22;1101;51.056;7.262;2023-04-12T15:46:38;12.20;94.10
2190;DHT22;1101;51.056;7.262;2023-04-12T15:49:07;12.20;94.20
2190;DHT22;1101;51.056;7.262;2023-04-12T15:51:35;12.10;94.20
2190;DHT22;1101;51.056;7.262;2023-04-12T15:54:05;12.00;94.30
2190;DHT22;1101;51.056;7.262;2023-04-12T15:56:33;11.90;94.30
2190;DHT22;1101;51.056;7.262;2023-04-12T15:59:03;11.70;94.30
2190;DHT22;1101;51.056;7.262;2023-04-12T16:01:31;11.50;94.20
2190;DHT22;1101;51.056;7.262;2023-04-12T16:04:01;11.40;94.30
2190;DHT22;1101;51.056;7.262;2023-04-12T16:06:29;11.20;94.40
2190;DHT22;1101;51.056;7.262;2023-04-12T16:09:00;11.00;94.50
2190;DHT22;1101;51.056;7.262;2023-04-12T16:11:31;10.90;94.70
2190;DHT22;1101;51.056;7.262;2023-04-12T16:14:00;10.90;94.80
2190;DHT22;1101;51.056;7.262;2023-04-12T16:16:28;10.90;94.80
2190;DHT22;1101;51.056;7.262;2023-04-12T16:18:56;10.90;94.90
2190;DHT22;1101;51.056;7.262;2023-04-12T16:21:25;10.90;94.90
2190;DHT22;1101;51.056;7.262;2023-04-12T16:23:54;10.80;95.30
2190;DHT22;1101;51.056;7.262;2023-04-12T16:26:22;10.90;95.00
2190;DHT22;1101;51.056;7.262;2023-04-12T16:28:52;10.80;95.00